»·PEaware :: N982NC 49X-L22

N982NC :: 49X-L22

FLIGHT INFORMATION

Flight Status: Arrived
Operator: Privately registered:
United States
More flights under this callsign
Pilot: Jon C. (26031)
Aircraft: CESSNA 177 CARDINAL
(C177)
More flights by this aircraft type
Origin: 49X Chemehuevi Valley
United States
Destination: L22 Yucca Valley
United States
More flights between these airports :: More routes between these airports
Route:
File this flight plan on PilotEdge
Remarks:
Altitude:
(Current/Filed)
7,500ft
Speed:
(Current/Filed)
120kts
Departed: 26-Jul-22 03:49 PM
Arrived: 26-Jul-22 04:40 PM
Distance/Time
Traveled:
101nm/0:50
Distance/Time
To Go:
Arrived

Flight Plot

Page will automatically refresh every two minutes.

Flight plan parsing failed; only flown route is shown


Map Options




Map Legend


Flown Route
Filed Route
Departure Airport
Arrival Airport
Navaid (VOR, NDB)
Fix

Horizontal Profiles

Position Reports

Time Latitude Longitude Heading Altitude Ground
Speed
26-Jul-22 15:41 34.529422 -114.430280 179 619ft 0kts
26-Jul-22 15:42 34.529422 -114.430280 179 619ft 0kts
26-Jul-22 15:43 34.529364 -114.430279 180 619ft 0kts
26-Jul-22 15:44 34.529246 -114.430873 325 623ft 3kts
26-Jul-22 15:45 34.531599 -114.430992 1 623ft 22kts
26-Jul-22 15:46 34.535512 -114.430971 357 625ft 6kts
26-Jul-22 15:47 34.535663 -114.431513 266 626ft 10kts
26-Jul-22 15:48 34.520202 -114.433335 188 871ft 78kts
26-Jul-22 15:49 34.500039 -114.443119 245 1406ft 85kts
26-Jul-22 15:50 34.494244 -114.472928 248 1660ft 111kts
26-Jul-22 15:51 34.485244 -114.508148 248 2061ft 91kts
26-Jul-22 15:52 34.477516 -114.539820 248 2510ft 90kts
26-Jul-22 15:53 34.469516 -114.573077 249 3057ft 101kts
26-Jul-22 15:54 34.461092 -114.607334 247 3883ft 88kts
26-Jul-22 15:55 34.453597 -114.639425 251 4711ft 89kts
26-Jul-22 15:56 34.446912 -114.671087 251 5485ft 89kts
26-Jul-22 15:57 34.440962 -114.703547 252 6162ft 88kts
26-Jul-22 15:58 34.435836 -114.736222 256 6778ft 90kts
26-Jul-22 15:59 34.431531 -114.769703 258 7376ft 91kts
26-Jul-22 16:00 34.428197 -114.803598 260 7952ft 92kts
26-Jul-22 16:01 34.425719 -114.837863 264 8495ft 95kts
26-Jul-22 16:02 34.423030 -114.881010 263 8518ft 130kts
26-Jul-22 16:03 34.420686 -114.930062 265 8521ft 137kts
26-Jul-22 16:04 34.419382 -114.981345 264 8520ft 138kts
26-Jul-22 16:05 34.415516 -115.032340 261 8519ft 136kts
26-Jul-22 16:06 34.407643 -115.082178 256 8518ft 136kts
26-Jul-22 16:07 34.396081 -115.130519 251 8516ft 135kts
26-Jul-22 16:08 34.380992 -115.176703 246 8515ft 136kts
26-Jul-22 16:09 34.361709 -115.223014 241 8527ft 145kts
26-Jul-22 16:11 34.338465 -115.268574 236 8551ft 146kts
26-Jul-22 16:12 34.315406 -115.306477 231 8572ft 144kts
26-Jul-22 16:13 34.288414 -115.343933 229 8610ft 142kts
26-Jul-22 16:14 34.257484 -115.379848 223 8619ft 142kts
26-Jul-22 16:15 34.224425 -115.411959 218 8628ft 143kts
26-Jul-22 16:16 34.189903 -115.443086 227 8633ft 142kts
26-Jul-22 16:17 34.177490 -115.490763 263 8637ft 139kts
26-Jul-22 16:18 34.171529 -115.542546 263 8637ft 139kts
26-Jul-22 16:19 34.165669 -115.594485 264 8637ft 139kts
26-Jul-22 16:20 34.164641 -115.645632 281 8637ft 138kts
26-Jul-22 16:21 34.171660 -115.695320 280 8637ft 138kts
26-Jul-22 16:22 34.178994 -115.746301 280 8637ft 138kts
26-Jul-22 16:23 34.186491 -115.797570 281 8637ft 138kts
26-Jul-22 16:24 34.194101 -115.848743 281 8637ft 138kts
26-Jul-22 16:25 34.201436 -115.897401 281 8637ft 138kts
26-Jul-22 16:26 34.209236 -115.948171 281 8637ft 138kts
26-Jul-22 16:27 34.217271 -115.999542 281 8430ft 149kts
26-Jul-22 16:28 34.225973 -116.053541 282 7877ft 144kts
26-Jul-22 16:29 34.230118 -116.106072 257 7327ft 144kts
26-Jul-22 16:30 34.217012 -116.157115 249 6734ft 145kts
26-Jul-22 16:31 34.202444 -116.206365 253 6015ft 134kts
26-Jul-22 16:32 34.188251 -116.247000 243 5391ft 123kts
26-Jul-22 16:33 34.166717 -116.283675 235 4661ft 121kts
26-Jul-22 16:34 34.148661 -116.318932 243 4328ft 103kts
26-Jul-22 16:35 34.135334 -116.351816 244 4098ft 95kts
26-Jul-22 16:36 34.123043 -116.383181 267 4295ft 100kts
26-Jul-22 16:37 34.104407 -116.409667 255 4492ft 93kts
26-Jul-22 16:38 34.106165 -116.439235 338 4441ft 87kts
26-Jul-22 16:38 34.121905 -116.432847 69 3973ft 80kts
26-Jul-22 16:40 34.129931 -116.406607 70 3215ft 19kts
26-Jul-22 16:41 34.129695 -116.405044 178 3211ft 0kts
26-Jul-22 16:42 34.129695 -116.405044 178 3211ft 0kts

Navigation Log

Ident Type
Flight plan parsing failed, navigation log unavailable